sensor_id;sensor_type;location;lat;lon;timestamp;temperature;humidity
18906;DHT22;9585;51.018;4.282;2022-10-16T00:01:41;12.80;99.90
18906;DHT22;9585;51.018;4.282;2022-10-16T00:04:08;12.80;99.90
18906;DHT22;9585;51.018;4.282;2022-10-16T00:06:36;12.80;99.90
18906;DHT22;9585;51.018;4.282;2022-10-16T00:09:04;12.70;99.90
18906;DHT22;9585;51.018;4.282;2022-10-16T00:11:33;12.70;99.90
18906;DHT22;9585;51.018;4.282;2022-10-16T00:14:04;12.70;99.90
18906;DHT22;9585;51.018;4.282;2022-10-16T00:16:34;12.70;99.90
18906;DHT22;9585;51.018;4.282;2022-10-16T00:19:02;12.70;99.90
18906;DHT22;9585;51.018;4.282;2022-10-16T00:21:30;12.60;99.90
18906;DHT22;9585;51.018;4.282;2022-10-16T00:23:59;12.70;99.90
18906;DHT22;9585;51.018;4.282;2022-10-16T00:26:28;12.60;99.90
18906;DHT22;9585;51.018;4.282;2022-10-16T00:28:56;12.60;99.90
18906;DHT22;9585;51.018;4.282;2022-10-16T00:31:24;12.60;99.90
18906;DHT22;9585;51.018;4.282;2022-10-16T00:33:53;12.60;99.90
18906;DHT22;9585;51.018;4.282;2022-10-16T00:36:26;12.60;99.90
18906;DHT22;9585;51.018;4.282;2022-10-16T00:38:55;12.60;99.90
18906;DHT22;9585;51.018;4.282;2022-10-16T00:41:24;12.60;99.90
18906;DHT22;9585;51.018;4.282;2022-10-16T00:43:54;12.60;99.90
18906;DHT22;9585;51.018;4.282;2022-10-16T00:46:25;12.60;99.90
18906;DHT22;9585;51.018;4.282;2022-10-16T00:48:58;12.60;99.90
18906;DHT22;9585;51.018;4.282;2022-10-16T00:51:31;12.60;99.90
18906;DHT22;9585;51.018;4.282;2022-10-16T00:54:00;12.60;99.90
18906;DHT22;9585;51.018;4.282;2022-10-16T00:56:28;12.50;99.90
18906;DHT22;9585;51.018;4.282;2022-10-16T00:58:55;12.50;99.90
18906;DHT22;9585;51.018;4.282;2022-10-16T01:01:23;12.40;99.90
18906;DHT22;9585;51.018;4.282;2022-10-16T01:03:50;12.50;99.90
18906;DHT22;9585;51.018;4.282;2022-10-16T01:06:31;12.50;99.90
18906;DHT22;9585;51.018;4.282;2022-10-16T01:09:13;12.50;99.90
18906;DHT22;9585;51.018;4.282;2022-10-16T01:11:48;12.50;99.90
18906;DHT22;9585;51.018;4.282;2022-10-16T01:14:21;12.50;99.90
18906;DHT22;9585;51.018;4.282;2022-10-16T01:16:53;12.40;99.90
18906;DHT22;9585;51.018;4.282;2022-10-16T01:19:36;12.50;99.90
18906;DHT22;9585;51.018;4.282;2022-10-16T01:22:09;12.50;99.90
18906;DHT22;9585;51.018;4.282;2022-10-16T01:24:41;12.50;99.90
18906;DHT22;9585;51.018;4.282;2022-10-16T01:27:13;12.40;99.90
18906;DHT22;9585;51.018;4.282;2022-10-16T01:29:49;12.40;99.90
18906;DHT22;9585;51.018;4.282;2022-10-16T01:32:24;12.40;99.90
18906;DHT22;9585;51.018;4.282;2022-10-16T01:35:00;12.40;99.90
18906;DHT22;9585;51.018;4.282;2022-10-16T01:37:35;12.40;99.90
18906;DHT22;9585;51.018;4.282;2022-10-16T01:40:07;12.30;99.90
18906;DHT22;9585;51.018;4.282;2022-10-16T01:42:40;12.30;99.90
18906;DHT22;9585;51.018;4.282;2022-10-16T01:45:12;12.30;99.90
18906;DHT22;9585;51.018;4.282;2022-10-16T01:47:40;12.30;99.90
18906;DHT22;9585;51.018;4.282;2022-10-16T01:50:09;12.30;99.90
18906;DHT22;9585;51.018;4.282;2022-10-16T01:52:40;12.30;99.90
18906;DHT22;9585;51.018;4.282;2022-10-16T01:55:10;12.30;99.90
18906;DHT22;9585;51.018;4.282;2022-10-16T01:57:44;12.30;99.90
18906;DHT22;9585;51.018;4.282;2022-10-16T02:00:13;12.30;99.90
18906;DHT22;9585;51.018;4.282;2022-10-16T02:02:44;12.30;99.90
18906;DHT22;9585;51.018;4.282;2022-10-16T02:05:16;12.30;99.90
18906;DHT22;9585;51.018;4.282;2022-10-16T02:07:46;12.30;99.90
18906;DHT22;9585;51.018;4.282;2022-10-16T02:10:14;12.30;99.90
18906;DHT22;9585;51.018;4.282;2022-10-16T02:12:47;12.40;99.90
18906;DHT22;9585;51.018;4.282;2022-10-16T02:15:16;12.30;99.90
18906;DHT22;9585;51.018;4.282;2022-10-16T02:17:44;12.40;99.90
18906;DHT22;9585;51.018;4.282;2022-10-16T02:20:11;12.40;99.90
18906;DHT22;9585;51.018;4.282;2022-10-16T02:22:41;12.30;99.90
18906;DHT22;9585;51.018;4.282;2022-10-16T02:25:11;12.30;99.90
18906;DHT22;9585;51.018;4.282;2022-10-16T02:27:47;12.30;99.90
18906;DHT22;9585;51.018;4.282;2022-10-16T02:30:21;12.30;99.90
18906;DHT22;9585;51.018;4.282;2022-10-16T02:32:51;12.30;99.90
18906;DHT22;9585;51.018;4.282;2022-10-16T02:35:21;12.40;99.90
18906;DHT22;9585;51.018;4.282;2022-10-16T02:37:50;12.30;99.90
18906;DHT22;9585;51.018;4.282;2022-10-16T02:40:18;12.30;99.90
18906;DHT22;9585;51.018;4.282;2022-10-16T02:42:51;12.30;99.90
18906;DHT22;9585;51.018;4.282;2022-10-16T02:45:18;12.30;99.90
18906;DHT22;9585;51.018;4.282;2022-10-16T02:47:46;12.30;99.90
18906;DHT22;9585;51.018;4.282;2022-10-16T02:50:14;12.30;99.90
18906;DHT22;9585;51.018;4.282;2022-10-16T02:52:41;12.30;99.90
18906;DHT22;9585;51.018;4.282;2022-10-16T02:55:09;12.30;99.90
18906;DHT22;9585;51.018;4.282;2022-10-16T02:57:36;12.30;99.90
18906;DHT22;9585;51.018;4.282;2022-10-16T03:00:09;12.30;99.90
18906;DHT22;9585;51.018;4.282;2022-10-16T03:02:37;12.30;99.90
18906;DHT22;9585;51.018;4.282;2022-10-16T03:05:05;12.30;99.90
18906;DHT22;9585;51.018;4.282;2022-10-16T03:07:33;12.30;99.90
18906;DHT22;9585;51.018;4.282;2022-10-16T03:10:00;12.20;99.90
18906;DHT22;9585;51.018;4.282;2022-10-16T03:12:28;12.30;99.90
18906;DHT22;9585;51.018;4.282;2022-10-16T03:14:55;12.30;99.90
18906;DHT22;9585;51.018;4.282;2022-10-16T03:17:25;12.40;99.90
18906;DHT22;9585;51.018;4.282;2022-10-16T03:19:52;12.30;99.90
18906;DHT22;9585;51.018;4.282;2022-10-16T03:22:20;12.30;99.90
18906;DHT22;9585;51.018;4.282;2022-10-16T03:24:48;12.30;99.90
18906;DHT22;9585;51.018;4.282;2022-10-16T03:27:16;12.30;99.90
18906;DHT22;9585;51.018;4.282;2022-10-16T03:29:46;12.30;99.90
18906;DHT22;9585;51.018;4.282;2022-10-16T03:32:13;12.30;99.90
18906;DHT22;9585;51.018;4.282;2022-10-16T03:34:42;12.30;99.90
18906;DHT22;9585;51.018;4.282;2022-10-16T03:37:10;12.30;99.90
18906;DHT22;9585;51.018;4.282;2022-10-16T03:39:38;12.30;99.90
18906;DHT22;9585;51.018;4.282;2022-10-16T03:42:05;12.30;99.90
18906;DHT22;9585;51.018;4.282;2022-10-16T03:44:32;12.30;99.90
18906;DHT22;9585;51.018;4.282;2022-10-16T03:47:00;12.30;99.90
18906;DHT22;9585;51.018;4.282;2022-10-16T03:49:27;12.30;99.90
18906;DHT22;9585;51.018;4.282;2022-10-16T03:51:56;12.20;99.90
18906;DHT22;9585;51.018;4.282;2022-10-16T03:54:24;12.20;99.90
18906;DHT22;9585;51.018;4.282;2022-10-16T03:56:51;12.30;99.90
18906;DHT22;9585;51.018;4.282;2022-10-16T03:59:18;12.20;99.90
18906;DHT22;9585;51.018;4.282;2022-10-16T04:01:46;12.30;99.90
18906;DHT22;9585;51.018;4.282;2022-10-16T04:04:17;12.20;99.90
18906;DHT22;9585;51.018;4.282;2022-10-16T04:06:44;12.20;99.90
18906;DHT22;9585;51.018;4.282;2022-10-16T04:09:13;12.20;99.90
18906;DHT22;9585;51.018;4.282;2022-10-16T04:11:43;12.20;99.90
18906;DHT22;9585;51.018;4.282;2022-10-16T04:14:10;12.20;99.90
18906;DHT22;9585;51.018;4.282;2022-10-16T04:16:38;12.30;99.90
18906;DHT22;9585;51.018;4.282;2022-10-16T04:19:05;12.20;99.90
18906;DHT22;9585;51.018;4.282;2022-10-16T04:21:32;12.30;99.90
18906;DHT22;9585;51.018;4.282;2022-10-16T04:24:00;12.20;99.90
18906;DHT22;9585;51.018;4.282;2022-10-16T04:26:29;12.20;99.90
18906;DHT22;9585;51.018;4.282;2022-10-16T04:28:56;12.20;99.90
18906;DHT22;9585;51.018;4.282;2022-10-16T04:31:24;12.20;99.90
18906;DHT22;9585;51.018;4.282;2022-10-16T04:33:51;12.20;99.90
18906;DHT22;9585;51.018;4.282;2022-10-16T04:36:18;12.20;99.90
18906;DHT22;9585;51.018;4.282;2022-10-16T04:38:46;12.20;99.90
18906;DHT22;9585;51.018;4.282;2022-10-16T04:41:13;12.10;99.90
18906;DHT22;9585;51.018;4.282;2022-10-16T04:43:42;12.10;99.90
18906;DHT22;9585;51.018;4.282;2022-10-16T04:46:09;12.10;99.90
18906;DHT22;9585;51.018;4.282;2022-10-16T04:48:39;12.10;99.90
18906;DHT22;9585;51.018;4.282;2022-10-16T04:51:07;12.10;99.90
18906;DHT22;9585;51.018;4.282;2022-10-16T04:53:35;12.00;99.90
18906;DHT22;9585;51.018;4.282;2022-10-16T04:56:03;12.00;99.90
18906;DHT22;9585;51.018;4.282;2022-10-16T04:58:30;12.00;99.90
18906;DHT22;9585;51.018;4.282;2022-10-16T05:01:00;12.00;99.90
18906;DHT22;9585;51.018;4.282;2022-10-16T05:03:27;12.00;99.90
18906;DHT22;9585;51.018;4.282;2022-10-16T05:05:54;12.00;99.90
18906;DHT22;9585;51.018;4.282;2022-10-16T05:08:22;12.00;99.90
18906;DHT22;9585;51.018;4.282;2022-10-16T05:10:49;12.00;99.90
18906;DHT22;9585;51.018;4.282;2022-10-16T05:13:16;12.00;99.90
18906;DHT22;9585;51.018;4.282;2022-10-16T05:15:46;11.90;99.90
18906;DHT22;9585;51.018;4.282;2022-10-16T05:18:16;11.80;99.90
18906;DHT22;9585;51.018;4.282;2022-10-16T05:20:43;11.80;99.90
18906;DHT22;9585;51.018;4.282;2022-10-16T05:23:10;11.80;99.90
18906;DHT22;9585;51.018;4.282;2022-10-16T05:25:38;11.80;99.90
18906;DHT22;9585;51.018;4.282;2022-10-16T05:28:05;11.80;99.90
18906;DHT22;9585;51.018;4.282;2022-10-16T05:30:33;11.80;99.90
18906;DHT22;9585;51.018;4.282;2022-10-16T05:33:00;11.80;99.90
18906;DHT22;9585;51.018;4.282;2022-10-16T05:35:29;11.70;99.90
18906;DHT22;9585;51.018;4.282;2022-10-16T05:37:56;11.80;99.90
18906;DHT22;9585;51.018;4.282;2022-10-16T05:40:23;11.80;99.90
18906;DHT22;9585;51.018;4.282;2022-10-16T05:42:54;11.70;99.90
18906;DHT22;9585;51.018;4.282;2022-10-16T05:45:22;11.70;99.90
18906;DHT22;9585;51.018;4.282;2022-10-16T05:47:49;11.80;99.90
18906;DHT22;9585;51.018;4.282;2022-10-16T05:50:17;11.80;99.90
18906;DHT22;9585;51.018;4.282;2022-10-16T05:52:45;11.80;99.90
18906;DHT22;9585;51.018;4.282;2022-10-16T05:55:13;11.80;99.90
18906;DHT22;9585;51.018;4.282;2022-10-16T05:57:41;11.80;99.90
18906;DHT22;9585;51.018;4.282;2022-10-16T06:00:09;11.80;99.90
18906;DHT22;9585;51.018;4.282;2022-10-16T06:02:36;11.90;99.90
18906;DHT22;9585;51.018;4.282;2022-10-16T06:05:04;11.90;99.90
18906;DHT22;9585;51.018;4.282;2022-10-16T06:07:34;11.90;99.90
18906;DHT22;9585;51.018;4.282;2022-10-16T06:10:04;11.90;99.90
18906;DHT22;9585;51.018;4.282;2022-10-16T06:12:31;12.00;99.90
18906;DHT22;9585;51.018;4.282;2022-10-16T06:14:58;12.00;99.90
18906;DHT22;9585;51.018;4.282;2022-10-16T06:17:26;12.10;99.90
18906;DHT22;9585;51.018;4.282;2022-10-16T06:19:53;12.10;99.90
18906;DHT22;9585;51.018;4.282;2022-10-16T06:22:20;12.10;99.90
18906;DHT22;9585;51.018;4.282;2022-10-16T06:24:48;12.10;99.90
18906;DHT22;9585;51.018;4.282;2022-10-16T06:27:17;12.10;99.90
18906;DHT22;9585;51.018;4.282;2022-10-16T06:29:44;12.10;99.90
18906;DHT22;9585;51.018;4.282;2022-10-16T06:32:12;12.20;99.90
18906;DHT22;9585;51.018;4.282;2022-10-16T06:34:39;12.20;99.90
18906;DHT22;9585;51.018;4.282;2022-10-16T06:37:06;12.20;99.90
18906;DHT22;9585;51.018;4.282;2022-10-16T06:39:33;12.20;99.90
18906;DHT22;9585;51.018;4.282;2022-10-16T06:42:01;12.20;99.90
18906;DHT22;9585;51.018;4.282;2022-10-16T06:44:30;12.30;99.90
18906;DHT22;9585;51.018;4.282;2022-10-16T06:46:57;12.40;99.90
18906;DHT22;9585;51.018;4.282;2022-10-16T06:49:24;12.60;99.90
18906;DHT22;9585;51.018;4.282;2022-10-16T06:51:51;12.70;99.90
18906;DHT22;9585;51.018;4.282;2022-10-16T06:54:19;12.70;99.90
18906;DHT22;9585;51.018;4.282;2022-10-16T06:56:46;12.80;99.90
18906;DHT22;9585;51.018;4.282;2022-10-16T06:59:13;12.80;99.90
18906;DHT22;9585;51.018;4.282;2022-10-16T07:01:42;12.80;99.90
18906;DHT22;9585;51.018;4.282;2022-10-16T07:04:09;12.90;99.90
18906;DHT22;9585;51.018;4.282;2022-10-16T07:06:36;12.90;99.90
18906;DHT22;9585;51.018;4.282;2022-10-16T07:09:08;13.00;99.90
18906;DHT22;9585;51.018;4.282;2022-10-16T07:11:37;13.10;99.90
18906;DHT22;9585;51.018;4.282;2022-10-16T07:14:05;13.30;99.90
18906;DHT22;9585;51.018;4.282;2022-10-16T07:16:37;13.70;99.90
18906;DHT22;9585;51.018;4.282;2022-10-16T07:19:08;14.10;99.90
18906;DHT22;9585;51.018;4.282;2022-10-16T07:21:38;14.50;99.90
18906;DHT22;9585;51.018;4.282;2022-10-16T07:24:06;15.00;99.90
18906;DHT22;9585;51.018;4.282;2022-10-16T07:26:35;15.50;99.90
18906;DHT22;9585;51.018;4.282;2022-10-16T07:29:05;15.90;99.90
18906;DHT22;9585;51.018;4.282;2022-10-16T07:31:32;16.30;99.90
18906;DHT22;9585;51.018;4.282;2022-10-16T07:34:00;16.70;99.90
18906;DHT22;9585;51.018;4.282;2022-10-16T07:36:31;17.10;99.90
18906;DHT22;9585;51.018;4.282;2022-10-16T07:38:59;17.40;99.90
18906;DHT22;9585;51.018;4.282;2022-10-16T07:41:27;17.50;99.90
18906;DHT22;9585;51.018;4.282;2022-10-16T07:43:55;17.60;99.90
18906;DHT22;9585;51.018;4.282;2022-10-16T07:46:26;17.50;99.90
18906;DHT22;9585;51.018;4.282;2022-10-16T07:48:53;17.60;99.90
18906;DHT22;9585;51.018;4.282;2022-10-16T07:51:23;17.90;99.90
18906;DHT22;9585;51.018;4.282;2022-10-16T07:53:53;18.20;99.90
18906;DHT22;9585;51.018;4.282;2022-10-16T07:56:20;18.20;99.90
18906;DHT22;9585;51.018;4.282;2022-10-16T07:58:50;18.40;99.90
18906;DHT22;9585;51.018;4.282;2022-10-16T08:01:18;18.40;99.90
18906;DHT22;9585;51.018;4.282;2022-10-16T08:03:48;18.20;99.90
18906;DHT22;9585;51.018;4.282;2022-10-16T08:06:16;18.00;99.90
18906;DHT22;9585;51.018;4.282;2022-10-16T08:08:46;17.60;99.90
18906;DHT22;9585;51.018;4.282;2022-10-16T08:11:17;17.30;99.90
18906;DHT22;9585;51.018;4.282;2022-10-16T08:13:45;17.20;99.90
18906;DHT22;9585;51.018;4.282;2022-10-16T08:16:12;16.90;99.90
18906;DHT22;9585;51.018;4.282;2022-10-16T08:18:40;16.80;99.90
18906;DHT22;9585;51.018;4.282;2022-10-16T08:21:12;16.60;99.90
18906;DHT22;9585;51.018;4.282;2022-10-16T08:23:40;16.50;99.90
18906;DHT22;9585;51.018;4.282;2022-10-16T08:26:08;16.40;99.90
18906;DHT22;9585;51.018;4.282;2022-10-16T08:28:43;16.40;99.90
18906;DHT22;9585;51.018;4.282;2022-10-16T08:31:13;16.40;99.90
18906;DHT22;9585;51.018;4.282;2022-10-16T08:33:42;16.50;99.90
18906;DHT22;9585;51.018;4.282;2022-10-16T08:36:16;16.50;99.90
18906;DHT22;9585;51.018;4.282;2022-10-16T08:38:46;16.50;99.90
18906;DHT22;9585;51.018;4.282;2022-10-16T08:41:34;16.60;99.90
18906;DHT22;9585;51.018;4.282;2022-10-16T08:44:25;16.70;99.90
18906;DHT22;9585;51.018;4.282;2022-10-16T08:47:04;16.70;99.90
18906;DHT22;9585;51.018;4.282;2022-10-16T08:49:35;16.60;99.90
18906;DHT22;9585;51.018;4.282;2022-10-16T08:52:06;16.60;99.90
18906;DHT22;9585;51.018;4.282;2022-10-16T08:54:41;16.60;99.90
18906;DHT22;9585;51.018;4.282;2022-10-16T08:57:13;16.50;99.90
18906;DHT22;9585;51.018;4.282;2022-10-16T08:59:42;16.70;99.90
18906;DHT22;9585;51.018;4.282;2022-10-16T09:02:23;16.80;99.90
18906;DHT22;9585;51.018;4.282;2022-10-16T09:05:10;17.00;99.90
18906;DHT22;9585;51.018;4.282;2022-10-16T09:07:48;17.00;99.90
18906;DHT22;9585;51.018;4.282;2022-10-16T09:10:29;17.10;99.90
18906;DHT22;9585;51.018;4.282;2022-10-16T09:13:11;17.30;99.90
18906;DHT22;9585;51.018;4.282;2022-10-16T09:15:49;17.30;99.90
18906;DHT22;9585;51.018;4.282;2022-10-16T09:18:21;17.40;99.90
18906;DHT22;9585;51.018;4.282;2022-10-16T09:21:00;17.40;99.90
18906;DHT22;9585;51.018;4.282;2022-10-16T09:23:30;17.40;99.90
18906;DHT22;9585;51.018;4.282;2022-10-16T09:26:01;17.40;99.90
18906;DHT22;9585;51.018;4.282;2022-10-16T09:28:29;17.60;99.90
18906;DHT22;9585;51.018;4.282;2022-10-16T09:30:58;17.70;99.90
18906;DHT22;9585;51.018;4.282;2022-10-16T09:33:29;17.70;99.90
18906;DHT22;9585;51.018;4.282;2022-10-16T09:35:57;17.40;99.90
18906;DHT22;9585;51.018;4.282;2022-10-16T09:38:28;17.60;99.90
18906;DHT22;9585;51.018;4.282;2022-10-16T09:40:56;17.70;99.90
18906;DHT22;9585;51.018;4.282;2022-10-16T09:43:26;17.80;99.90
18906;DHT22;9585;51.018;4.282;2022-10-16T09:46:03;17.90;99.90
18906;DHT22;9585;51.018;4.282;2022-10-16T09:48:36;18.00;99.90
18906;DHT22;9585;51.018;4.282;2022-10-16T09:51:05;18.20;99.90
18906;DHT22;9585;51.018;4.282;2022-10-16T09:53:41;18.30;99.90
18906;DHT22;9585;51.018;4.282;2022-10-16T09:56:10;18.40;99.90
18906;DHT22;9585;51.018;4.282;2022-10-16T09:58:42;18.50;99.90
18906;DHT22;9585;51.018;4.282;2022-10-16T10:01:14;18.40;99.90
18906;DHT22;9585;51.018;4.282;2022-10-16T10:03:43;18.50;99.90
18906;DHT22;9585;51.018;4.282;2022-10-16T10:06:21;18.60;99.90
18906;DHT22;9585;51.018;4.282;2022-10-16T10:08:54;18.70;99.90
18906;DHT22;9585;51.018;4.282;2022-10-16T10:11:45;18.70;99.90
18906;DHT22;9585;51.018;4.282;2022-10-16T10:14:24;19.00;99.90
18906;DHT22;9585;51.018;4.282;2022-10-16T10:17:08;18.90;99.90
18906;DHT22;9585;51.018;4.282;2022-10-16T10:19:47;18.70;99.90
18906;DHT22;9585;51.018;4.282;2022-10-16T10:22:21;18.70;99.90
18906;DHT22;9585;51.018;4.282;2022-10-16T10:25:21;18.90;99.90
18906;DHT22;9585;51.018;4.282;2022-10-16T10:28:00;19.00;99.90
18906;DHT22;9585;51.018;4.282;2022-10-16T10:30:37;19.00;99.90
18906;DHT22;9585;51.018;4.282;2022-10-16T10:33:19;19.10;99.90
18906;DHT22;9585;51.018;4.282;2022-10-16T10:35:54;19.00;99.90
18906;DHT22;9585;51.018;4.282;2022-10-16T10:38:29;18.80;99.90
18906;DHT22;9585;51.018;4.282;2022-10-16T10:41:13;18.80;99.90
18906;DHT22;9585;51.018;4.282;2022-10-16T10:43:50;19.00;99.90
18906;DHT22;9585;51.018;4.282;2022-10-16T10:46:28;19.00;99.90
18906;DHT22;9585;51.018;4.282;2022-10-16T10:49:10;18.80;99.90
18906;DHT22;9585;51.018;4.282;2022-10-16T10:51:45;18.90;99.90
18906;DHT22;9585;51.018;4.282;2022-10-16T10:54:20;19.10;99.90
18906;DHT22;9585;51.018;4.282;2022-10-16T10:56:56;19.30;99.90
18906;DHT22;9585;51.018;4.282;2022-10-16T10:59:58;19.40;99.90
18906;DHT22;9585;51.018;4.282;2022-10-16T11:02:33;19.70;99.90
18906;DHT22;9585;51.018;4.282;2022-10-16T11:05:23;19.80;99.90
18906;DHT22;9585;51.018;4.282;2022-10-16T11:07:55;19.60;99.90
18906;DHT22;9585;51.018;4.282;2022-10-16T11:10:27;19.60;99.90
18906;DHT22;9585;51.018;4.282;2022-10-16T11:12:58;19.70;99.90
18906;DHT22;9585;51.018;4.282;2022-10-16T11:15:30;20.00;99.90
18906;DHT22;9585;51.018;4.282;2022-10-16T11:18:04;20.30;99.90
18906;DHT22;9585;51.018;4.282;2022-10-16T11:20:37;20.30;99.90
18906;DHT22;9585;51.018;4.282;2022-10-16T11:23:11;20.00;99.90
18906;DHT22;9585;51.018;4.282;2022-10-16T11:25:43;19.60;99.90
18906;DHT22;9585;51.018;4.282;2022-10-16T11:28:13;19.70;99.90
18906;DHT22;9585;51.018;4.282;2022-10-16T11:30:45;19.90;99.90
18906;DHT22;9585;51.018;4.282;2022-10-16T11:33:35;20.10;99.90
18906;DHT22;9585;51.018;4.282;2022-10-16T11:36:12;20.30;99.90
18906;DHT22;9585;51.018;4.282;2022-10-16T11:38:49;20.10;99.90
18906;DHT22;9585;51.018;4.282;2022-10-16T11:41:24;19.90;99.90
18906;DHT22;9585;51.018;4.282;2022-10-16T11:44:00;19.60;99.90
18906;DHT22;9585;51.018;4.282;2022-10-16T11:46:33;19.30;99.90
18906;DHT22;9585;51.018;4.282;2022-10-16T11:49:08;19.50;99.90
18906;DHT22;9585;51.018;4.282;2022-10-16T11:51:43;19.90;99.90
18906;DHT22;9585;51.018;4.282;2022-10-16T11:54:18;19.80;99.90
18906;DHT22;9585;51.018;4.282;2022-10-16T11:56:50;20.00;99.90
18906;DHT22;9585;51.018;4.282;2022-10-16T11:59:25;20.00;99.90
18906;DHT22;9585;51.018;4.282;2022-10-16T12:01:58;19.90;99.90
18906;DHT22;9585;51.018;4.282;2022-10-16T12:04:34;19.80;99.90
18906;DHT22;9585;51.018;4.282;2022-10-16T12:07:15;19.90;99.90
18906;DHT22;9585;51.018;4.282;2022-10-16T12:09:45;20.10;99.90
18906;DHT22;9585;51.018;4.282;2022-10-16T12:12:25;20.20;99.90
18906;DHT22;9585;51.018;4.282;2022-10-16T12:15:01;20.40;99.90
18906;DHT22;9585;51.018;4.282;2022-10-16T12:17:36;20.50;99.90
18906;DHT22;9585;51.018;4.282;2022-10-16T12:20:23;20.40;99.90
18906;DHT22;9585;51.018;4.282;2022-10-16T12:22:55;20.50;99.90
18906;DHT22;9585;51.018;4.282;2022-10-16T12:25:26;20.20;99.90
18906;DHT22;9585;51.018;4.282;2022-10-16T12:27:58;19.90;99.90
18906;DHT22;9585;51.018;4.282;2022-10-16T12:30:29;19.50;99.90
18906;DHT22;9585;51.018;4.282;2022-10-16T12:33:03;19.30;99.90
18906;DHT22;9585;51.018;4.282;2022-10-16T12:35:33;19.30;99.90
18906;DHT22;9585;51.018;4.282;2022-10-16T12:38:15;19.10;99.90
18906;DHT22;9585;51.018;4.282;2022-10-16T12:40:44;19.00;99.90
18906;DHT22;9585;51.018;4.282;2022-10-16T12:43:24;19.10;99.90
18906;DHT22;9585;51.018;4.282;2022-10-16T12:46:03;19.10;99.90
18906;DHT22;9585;51.018;4.282;2022-10-16T12:48:30;19.40;99.90
18906;DHT22;9585;51.018;4.282;2022-10-16T12:51:09;19.60;99.90
18906;DHT22;9585;51.018;4.282;2022-10-16T12:53:40;19.30;99.90
18906;DHT22;9585;51.018;4.282;2022-10-16T12:56:13;19.10;99.90
18906;DHT22;9585;51.018;4.282;2022-10-16T12:58:56;19.10;99.90
18906;DHT22;9585;51.018;4.282;2022-10-16T13:01:36;18.90;99.90
18906;DHT22;9585;51.018;4.282;2022-10-16T13:04:31;18.90;99.90
18906;DHT22;9585;51.018;4.282;2022-10-16T13:07:12;18.90;99.90
18906;DHT22;9585;51.018;4.282;2022-10-16T13:09:53;19.10;99.90
18906;DHT22;9585;51.018;4.282;2022-10-16T13:12:55;19.10;99.90
18906;DHT22;9585;51.018;4.282;2022-10-16T13:15:36;19.10;99.90
18906;DHT22;9585;51.018;4.282;2022-10-16T13:18:14;19.00;99.90
18906;DHT22;9585;51.018;4.282;2022-10-16T13:20:55;19.00;99.90
18906;DHT22;9585;51.018;4.282;2022-10-16T13:23:29;19.00;99.90
18906;DHT22;9585;51.018;4.282;2022-10-16T13:26:09;19.00;99.90
18906;DHT22;9585;51.018;4.282;2022-10-16T13:28:39;18.80;99.90
18906;DHT22;9585;51.018;4.282;2022-10-16T13:31:14;18.70;99.90
18906;DHT22;9585;51.018;4.282;2022-10-16T13:33:46;18.70;99.90
18906;DHT22;9585;51.018;4.282;2022-10-16T13:36:20;18.60;99.90
18906;DHT22;9585;51.018;4.282;2022-10-16T13:38:48;18.60;99.90
18906;DHT22;9585;51.018;4.282;2022-10-16T13:41:18;18.70;99.90
18906;DHT22;9585;51.018;4.282;2022-10-16T13:43:49;18.80;99.90
18906;DHT22;9585;51.018;4.282;2022-10-16T13:46:19;18.90;99.90
18906;DHT22;9585;51.018;4.282;2022-10-16T13:48:56;19.00;99.90
18906;DHT22;9585;51.018;4.282;2022-10-16T13:51:26;18.90;99.90
18906;DHT22;9585;51.018;4.282;2022-10-16T13:53:55;18.40;99.90
18906;DHT22;9585;51.018;4.282;2022-10-16T13:56:26;18.40;99.90
18906;DHT22;9585;51.018;4.282;2022-10-16T13:59:00;18.50;99.90
18906;DHT22;9585;51.018;4.282;2022-10-16T14:01:29;18.60;99.90
18906;DHT22;9585;51.018;4.282;2022-10-16T14:04:02;18.60;99.90
18906;DHT22;9585;51.018;4.282;2022-10-16T14:06:31;18.60;99.90
18906;DHT22;9585;51.018;4.282;2022-10-16T14:09:02;18.60;99.90
18906;DHT22;9585;51.018;4.282;2022-10-16T14:11:34;18.60;99.90
18906;DHT22;9585;51.018;4.282;2022-10-16T14:14:04;18.60;99.90
18906;DHT22;9585;51.018;4.282;2022-10-16T14:16:32;18.60;99.90
18906;DHT22;9585;51.018;4.282;2022-10-16T14:19:02;18.60;99.90
18906;DHT22;9585;51.018;4.282;2022-10-16T14:21:32;18.60;99.90
18906;DHT22;9585;51.018;4.282;2022-10-16T14:24:10;18.60;99.90
18906;DHT22;9585;51.018;4.282;2022-10-16T14:26:43;18.60;99.90
18906;DHT22;9585;51.018;4.282;2022-10-16T14:29:14;18.40;99.90
18906;DHT22;9585;51.018;4.282;2022-10-16T14:31:42;18.30;99.90
18906;DHT22;9585;51.018;4.282;2022-10-16T14:34:26;18.30;99.90
18906;DHT22;9585;51.018;4.282;2022-10-16T14:36:54;18.40;99.90
18906;DHT22;9585;51.018;4.282;2022-10-16T14:39:22;18.30;99.90
18906;DHT22;9585;51.018;4.282;2022-10-16T14:41:56;18.40;99.90
18906;DHT22;9585;51.018;4.282;2022-10-16T14:44:28;18.40;99.90
18906;DHT22;9585;51.018;4.282;2022-10-16T14:46:56;18.30;99.90
18906;DHT22;9585;51.018;4.282;2022-10-16T14:49:25;18.30;99.90
18906;DHT22;9585;51.018;4.282;2022-10-16T14:51:53;18.20;99.90
18906;DHT22;9585;51.018;4.282;2022-10-16T14:54:21;18.10;99.90
18906;DHT22;9585;51.018;4.282;2022-10-16T14:56:52;18.10;99.90
18906;DHT22;9585;51.018;4.282;2022-10-16T14:59:24;18.00;99.90
18906;DHT22;9585;51.018;4.282;2022-10-16T15:01:52;17.90;99.90
18906;DHT22;9585;51.018;4.282;2022-10-16T15:04:20;17.90;99.90
18906;DHT22;9585;51.018;4.282;2022-10-16T15:06:47;17.80;99.90
18906;DHT22;9585;51.018;4.282;2022-10-16T15:09:14;17.80;99.90
18906;DHT22;9585;51.018;4.282;2022-10-16T15:11:42;17.90;99.90
18906;DHT22;9585;51.018;4.282;2022-10-16T15:14:13;17.90;99.90
18906;DHT22;9585;51.018;4.282;2022-10-16T15:16:40;18.00;99.90
18906;DHT22;9585;51.018;4.282;2022-10-16T15:19:07;18.00;99.90
18906;DHT22;9585;51.018;4.282;2022-10-16T15:21:35;18.00;99.90
18906;DHT22;9585;51.018;4.282;2022-10-16T15:24:05;18.00;99.90
18906;DHT22;9585;51.018;4.282;2022-10-16T15:26:35;17.90;99.90
18906;DHT22;9585;51.018;4.282;2022-10-16T15:29:03;17.90;99.90
18906;DHT22;9585;51.018;4.282;2022-10-16T15:31:32;17.80;99.90
18906;DHT22;9585;51.018;4.282;2022-10-16T15:33:59;17.70;99.90
18906;DHT22;9585;51.018;4.282;2022-10-16T15:36:32;17.60;99.90
18906;DHT22;9585;51.018;4.282;2022-10-16T15:39:03;17.50;99.90
18906;DHT22;9585;51.018;4.282;2022-10-16T15:41:31;17.50;99.90
18906;DHT22;9585;51.018;4.282;2022-10-16T15:43:59;17.40;99.90
18906;DHT22;9585;51.018;4.282;2022-10-16T15:46:26;17.40;99.90
18906;DHT22;9585;51.018;4.282;2022-10-16T15:48:58;17.40;99.90
18906;DHT22;9585;51.018;4.282;2022-10-16T15:51:28;17.20;99.90
18906;DHT22;9585;51.018;4.282;2022-10-16T15:53:57;16.90;99.90
18906;DHT22;9585;51.018;4.282;2022-10-16T15:56:27;16.80;99.90
18906;DHT22;9585;51.018;4.282;2022-10-16T15:58:56;16.70;99.90
18906;DHT22;9585;51.018;4.282;2022-10-16T16:01:24;16.80;99.90
18906;DHT22;9585;51.018;4.282;2022-10-16T16:03:53;16.80;99.90
18906;DHT22;9585;51.018;4.282;2022-10-16T16:06:22;16.60;99.90
18906;DHT22;9585;51.018;4.282;2022-10-16T16:08:50;16.70;99.90
18906;DHT22;9585;51.018;4.282;2022-10-16T16:11:18;16.70;99.90